createdAt,value
2022-11-16T00:00:24.351Z,28.77
2022-11-16T00:03:05.604Z,29.00
2022-11-16T00:05:36.738Z,27.30
2022-11-16T00:08:07.511Z,27.87
2022-11-16T00:10:40.275Z,27.63
2022-11-16T00:13:11.318Z,27.20
2022-11-16T00:15:41.273Z,27.80
2022-11-16T00:18:11.650Z,28.13
2022-11-16T00:20:41.971Z,28.70
2022-11-16T00:23:12.301Z,28.07
2022-11-16T00:25:44.885Z,28.83
2022-11-16T00:28:15.258Z,27.07
2022-11-16T00:30:45.314Z,28.53
2022-11-16T00:33:18.032Z,28.97
2022-11-16T00:35:48.013Z,27.03
2022-11-16T00:38:18.437Z,27.47
2022-11-16T00:40:51.399Z,27.07
2022-11-16T00:43:21.765Z,27.33
2022-11-16T00:45:51.788Z,26.83
2022-11-16T00:48:22.511Z,26.17
2022-11-16T00:50:52.556Z,26.77
2022-11-16T00:53:23.434Z,27.47
2022-11-16T00:55:56.080Z,27.17
2022-11-16T00:58:26.653Z,27.07
2022-11-16T01:00:56.697Z,26.60
2022-11-16T01:03:27.051Z,26.47
2022-11-16T01:06:03.349Z,25.57
2022-11-16T01:08:33.989Z,25.70
2022-11-16T01:11:19.385Z,25.67
2022-11-16T01:13:50.205Z,25.20
2022-11-16T01:16:22.119Z,26.80
2022-11-16T01:18:54.134Z,25.57
2022-11-16T01:21:25.319Z,27.37
2022-11-16T01:23:55.782Z,27.73
2022-11-16T01:26:28.527Z,26.93
2022-11-16T01:29:00.580Z,27.03
2022-11-16T01:31:30.555Z,27.50
2022-11-16T01:34:00.931Z,27.07
2022-11-16T01:36:30.928Z,28.03
2022-11-16T01:39:01.441Z,28.70
2022-11-16T01:41:34.041Z,28.13
2022-11-16T01:44:07.040Z,26.73
2022-11-16T01:46:37.004Z,27.07
2022-11-16T01:49:10.962Z,27.97
2022-11-16T01:51:42.594Z,27.77
2022-11-16T01:54:16.497Z,27.93
2022-11-16T01:56:53.360Z,27.47
2022-11-16T01:59:24.353Z,28.90
2022-11-16T02:01:54.594Z,27.20
2022-11-16T02:04:25.506Z,27.87
2022-11-16T02:07:04.870Z,26.73
2022-11-16T02:10:01.235Z,28.50
2022-11-16T02:12:58.769Z,26.47
2022-11-16T02:15:34.391Z,27.63
2022-11-16T02:18:18.420Z,26.47
2022-11-16T02:21:03.885Z,27.17
2022-11-16T02:24:03.976Z,26.27
2022-11-16T02:27:07.942Z,27.03
2022-11-16T02:29:45.169Z,28.03
2022-11-16T02:32:19.884Z,27.13
2022-11-16T02:34:53.872Z,28.57
2022-11-16T02:40:38.997Z,25.77
2022-11-16T02:43:12.592Z,27.47
2022-11-16T02:45:48.978Z,25.87
2022-11-16T02:48:25.462Z,27.27
2022-11-16T02:50:56.672Z,27.60
2022-11-16T02:53:28.666Z,26.97
2022-11-16T02:56:02.515Z,26.70
2022-11-16T02:58:33.584Z,26.43
2022-11-16T03:01:11.376Z,26.33
2022-11-16T03:03:46.567Z,27.17
2022-11-16T03:06:20.863Z,26.87
2022-11-16T03:09:03.873Z,26.50
2022-11-16T03:11:48.822Z,27.07
2022-11-16T03:14:23.398Z,25.40
2022-11-16T03:16:59.801Z,26.23
2022-11-16T03:19:37.524Z,28.13
2022-11-16T03:22:13.043Z,30.20
2022-11-16T03:24:44.533Z,26.63
2022-11-16T03:27:26.123Z,27.37
2022-11-16T03:30:04.556Z,27.70
2022-11-16T03:32:48.100Z,29.07
2022-11-16T03:35:23.863Z,27.67
2022-11-16T03:37:59.037Z,30.40
2022-11-16T03:40:33.158Z,29.23
2022-11-16T03:43:04.593Z,29.43
2022-11-16T03:45:35.777Z,29.43
2022-11-16T03:48:09.801Z,31.83
2022-11-16T03:50:40.811Z,31.90
2022-11-16T03:53:10.737Z,30.73
2022-11-16T03:55:44.486Z,29.63
2022-11-16T03:58:18.689Z,31.10
2022-11-16T04:00:49.293Z,31.10
2022-11-16T04:03:22.797Z,30.57
2022-11-16T04:06:05.752Z,32.83
2022-11-16T04:08:48.192Z,32.60
2022-11-16T04:11:34.418Z,35.30
2022-11-16T04:14:16.800Z,33.90
2022-11-16T04:16:59.521Z,32.87
2022-11-16T04:19:58.245Z,33.87
2022-11-16T04:22:46.152Z,34.50
2022-11-16T04:25:21.241Z,35.30
2022-11-16T04:28:04.335Z,35.23
2022-11-16T04:30:57.074Z,36.43
2022-11-16T04:33:39.987Z,37.87
2022-11-16T04:36:25.245Z,37.77
2022-11-16T04:38:55.563Z,38.07
2022-11-16T04:41:37.906Z,35.77
2022-11-16T04:44:08.296Z,38.40
2022-11-16T04:46:50.679Z,37.97
2022-11-16T04:49:20.957Z,40.07
2022-11-16T04:51:53.490Z,38.30
2022-11-16T04:54:23.915Z,39.83
2022-11-16T04:56:53.922Z,41.53
2022-11-16T04:59:24.237Z,41.40
2022-11-16T05:02:06.606Z,42.30
2022-11-16T05:04:36.913Z,41.20
2022-11-16T05:07:12.023Z,42.20
2022-11-16T05:09:43.454Z,39.50
2022-11-16T05:12:14.896Z,39.57
2022-11-16T05:14:46.027Z,41.60
2022-11-16T05:17:17.649Z,41.53
2022-11-16T05:20:00.807Z,40.87
2022-11-16T05:22:33.615Z,38.73
2022-11-16T05:25:04.459Z,40.97
2022-11-16T05:27:34.690Z,40.37
2022-11-16T05:30:05.261Z,43.83
2022-11-16T05:32:35.501Z,41.80
2022-11-16T05:35:06.273Z,40.73
2022-11-16T05:37:39.144Z,41.63
2022-11-16T05:40:11.095Z,41.43
2022-11-16T05:42:41.096Z,42.27
2022-11-16T05:45:14.909Z,42.33
2022-11-16T05:47:48.418Z,42.33
2022-11-16T05:50:19.170Z,42.67
2022-11-16T05:52:51.734Z,41.33
2022-11-16T05:55:22.044Z,43.17
2022-11-16T05:57:52.035Z,43.57
2022-11-16T06:00:22.940Z,43.73
2022-11-16T06:02:52.994Z,41.97
2022-11-16T06:05:23.340Z,44.13
2022-11-16T06:07:56.007Z,41.70
2022-11-16T06:10:26.252Z,41.87
2022-11-16T06:12:56.389Z,44.07
2022-11-16T06:15:26.777Z,44.27
2022-11-16T06:17:56.733Z,45.23
2022-11-16T06:20:27.060Z,43.57
2022-11-16T06:22:59.750Z,45.40
2022-11-16T06:25:30.884Z,44.73
2022-11-16T06:28:06.628Z,44.37
2022-11-16T06:30:38.500Z,43.60
2022-11-16T06:33:08.912Z,44.47
2022-11-16T06:35:39.223Z,45.77
2022-11-16T06:38:13.725Z,45.87
2022-11-16T06:40:44.033Z,44.83
2022-11-16T06:43:14.548Z,44.03
2022-11-16T06:45:45.069Z,44.10
2022-11-16T06:48:15.040Z,46.13
2022-11-16T06:50:45.394Z,45.60
2022-11-16T06:53:18.287Z,46.60
2022-11-16T06:55:48.869Z,47.20
2022-11-16T06:58:19.056Z,48.00
2022-11-16T07:00:49.404Z,46.67
2022-11-16T07:03:19.339Z,47.57
2022-11-16T07:05:49.559Z,48.37
2022-11-16T07:08:22.310Z,47.33
2022-11-16T07:10:52.642Z,47.37
2022-11-16T07:13:22.626Z,49.87
2022-11-16T07:15:52.938Z,49.37
2022-11-16T07:18:22.945Z,48.63
2022-11-16T07:20:53.263Z,47.77
2022-11-16T07:23:25.896Z,49.20
2022-11-16T07:25:56.147Z,50.67
2022-11-16T07:28:26.133Z,51.27
2022-11-16T07:30:56.543Z,53.87
2022-11-16T07:33:26.521Z,50.30
2022-11-16T07:35:57.122Z,50.37
2022-11-16T07:38:29.744Z,50.47
2022-11-16T07:41:03.076Z,50.13
2022-11-16T07:43:35.142Z,50.73
2022-11-16T07:46:44.800Z,50.90
2022-11-16T07:48:56.697Z,50.10
2022-11-16T07:51:27.622Z,52.63
2022-11-16T07:54:00.841Z,51.40
2022-11-16T07:56:31.321Z,49.80
2022-11-16T07:59:02.421Z,52.40
2022-11-16T08:01:33.356Z,48.90
2022-11-16T08:04:04.487Z,49.33
2022-11-16T08:06:35.013Z,52.37
2022-11-16T08:09:07.716Z,49.83
2022-11-16T08:11:38.305Z,51.40
2022-11-16T08:14:08.444Z,51.93
2022-11-16T08:16:38.851Z,50.10
2022-11-16T08:19:09.065Z,51.37
2022-11-16T08:21:48.442Z,49.50
2022-11-16T08:24:20.975Z,51.07
2022-11-16T08:26:51.403Z,49.13
2022-11-16T08:29:21.598Z,48.23
2022-11-16T08:31:54.966Z,46.70
2022-11-16T08:34:24.935Z,45.13
2022-11-16T08:36:56.099Z,46.53
2022-11-16T08:39:28.667Z,44.70
2022-11-16T08:41:59.686Z,46.20
2022-11-16T08:44:31.508Z,44.53
2022-11-16T08:47:01.901Z,43.87
2022-11-16T08:49:31.891Z,43.30
2022-11-16T08:52:02.308Z,39.60
2022-11-16T08:54:34.905Z,41.07
2022-11-16T08:57:05.274Z,40.00
2022-11-16T08:59:35.205Z,39.53
2022-11-16T09:02:06.037Z,40.70
2022-11-16T09:04:37.310Z,38.63
2022-11-16T09:07:13.653Z,38.93
2022-11-16T09:09:46.813Z,37.27
2022-11-16T09:12:17.825Z,37.47
2022-11-16T09:14:47.792Z,36.07
2022-11-16T09:17:22.954Z,35.70
2022-11-16T09:19:53.328Z,35.50
2022-11-16T09:22:23.863Z,34.03
2022-11-16T09:24:56.414Z,33.07
2022-11-16T09:27:27.061Z,34.53
2022-11-16T09:29:57.110Z,36.07
2022-11-16T09:32:27.464Z,33.77
2022-11-16T09:34:57.732Z,32.67
2022-11-16T09:37:28.382Z,30.67
2022-11-16T09:40:00.878Z,30.73
2022-11-16T09:42:53.699Z,29.53
2022-11-16T09:45:31.847Z,27.73
2022-11-16T09:48:06.456Z,26.47
2022-11-16T09:50:45.047Z,26.80
2022-11-16T09:53:28.604Z,22.57
2022-11-16T09:56:05.600Z,22.67
2022-11-16T09:58:43.546Z,23.70
2022-11-16T10:01:23.997Z,22.40
2022-11-16T10:04:02.776Z,22.13
2022-11-16T10:06:44.550Z,19.00
2022-11-16T10:09:15.810Z,16.87
2022-11-16T10:11:59.174Z,15.50
2022-11-16T10:14:54.669Z,16.17
2022-11-16T10:17:35.079Z,14.77
2022-11-16T10:20:19.678Z,15.90
2022-11-16T10:22:59.392Z,16.07
2022-11-16T10:25:35.871Z,16.23
2022-11-16T10:28:32.132Z,16.57
2022-11-16T10:31:09.740Z,16.80
2022-11-16T10:33:41.414Z,17.43
2022-11-16T10:36:16.155Z,18.13
2022-11-16T10:38:47.763Z,18.27
2022-11-16T10:41:22.554Z,19.00
2022-11-16T10:43:56.002Z,17.60
2022-11-16T10:46:30.917Z,18.87
2022-11-16T10:49:07.578Z,19.93
2022-11-16T10:51:37.885Z,19.93
2022-11-16T10:54:15.268Z,20.87
2022-11-16T10:56:48.037Z,20.93
2022-11-16T10:59:22.214Z,21.23
2022-11-16T11:01:53.970Z,20.83
2022-11-16T11:04:26.828Z,22.17
2022-11-16T11:06:59.313Z,22.03
2022-11-16T11:09:31.775Z,18.93
2022-11-16T11:12:28.116Z,21.77
2022-11-16T11:15:27.155Z,20.20
2022-11-16T11:18:14.218Z,20.27
2022-11-16T11:20:46.986Z,18.87
2022-11-16T11:23:20.568Z,20.43
2022-11-16T11:25:56.476Z,19.93
2022-11-16T11:28:30.102Z,19.80
2022-11-16T11:31:06.616Z,20.20
2022-11-16T11:33:39.056Z,20.10
2022-11-16T11:36:14.782Z,20.90
2022-11-16T11:38:59.336Z,18.57
2022-11-16T11:41:35.159Z,21.10
2022-11-16T11:44:07.352Z,19.13
2022-11-16T11:47:28.756Z,19.97
2022-11-16T11:49:38.663Z,20.30
2022-11-16T11:52:17.351Z,19.70
2022-11-16T11:54:49.450Z,20.03
2022-11-16T11:57:24.970Z,19.83
2022-11-16T11:59:57.306Z,19.07
2022-11-16T12:02:45.415Z,20.40
2022-11-16T12:05:37.354Z,20.73
2022-11-16T12:08:24.126Z,20.83
2022-11-16T12:11:03.116Z,19.30
2022-11-16T12:13:49.135Z,19.83
2022-11-16T12:16:29.739Z,19.57
2022-11-16T12:19:19.648Z,19.83
2022-11-16T12:22:03.989Z,19.70
2022-11-16T12:25:03.227Z,20.33
2022-11-16T12:27:42.540Z,20.43
2022-11-16T12:30:16.155Z,22.33
2022-11-16T12:33:08.096Z,20.07
2022-11-16T12:35:55.793Z,21.00
2022-11-16T12:38:37.611Z,19.77
2022-11-16T12:41:31.534Z,21.77
2022-11-16T12:44:03.831Z,20.53
2022-11-16T12:46:43.054Z,21.33
2022-11-16T12:49:38.479Z,21.77
2022-11-16T12:52:28.489Z,21.53
2022-11-16T12:55:25.781Z,22.13
2022-11-16T12:58:13.062Z,20.93
2022-11-16T13:00:55.721Z,22.17
2022-11-16T13:03:33.853Z,21.50
2022-11-16T13:06:07.873Z,22.57
2022-11-16T13:08:53.556Z,22.23
2022-11-16T13:11:28.410Z,20.27
2022-11-16T13:14:02.570Z,20.97
2022-11-16T13:16:33.494Z,21.47
2022-11-16T13:19:06.289Z,20.07
2022-11-16T13:21:48.572Z,19.80
2022-11-16T13:24:46.762Z,20.37
2022-11-16T13:27:31.443Z,20.23
2022-11-16T13:30:06.699Z,21.00
2022-11-16T13:32:52.062Z,20.70
2022-11-16T13:35:23.984Z,19.97
2022-11-16T13:37:54.560Z,20.40
2022-11-16T13:40:32.273Z,20.50
2022-11-16T13:43:08.723Z,20.07
2022-11-16T13:45:42.830Z,19.67
2022-11-16T13:48:21.810Z,20.53
2022-11-16T13:50:58.819Z,20.23
2022-11-16T13:56:29.261Z,21.03
2022-11-16T13:59:01.270Z,19.23
2022-11-16T14:01:59.504Z,17.57
2022-11-16T14:04:45.078Z,17.93
2022-11-16T14:07:31.747Z,19.93
2022-11-16T14:10:05.628Z,18.93
2022-11-16T14:13:04.325Z,17.27
2022-11-16T14:15:37.275Z,17.90
2022-11-16T14:18:37.344Z,17.37
2022-11-16T14:21:20.008Z,17.73
2022-11-16T14:24:05.148Z,17.30
2022-11-16T14:26:47.518Z,16.50
2022-11-16T14:29:36.703Z,15.97
2022-11-16T14:32:20.299Z,15.87
2022-11-16T14:34:53.335Z,16.80
2022-11-16T14:37:37.371Z,16.47
2022-11-16T14:40:11.683Z,17.00
2022-11-16T14:45:50.105Z,16.60
2022-11-16T14:48:22.727Z,15.83
2022-11-16T14:51:04.511Z,16.30
2022-11-16T14:53:38.167Z,16.00
2022-11-16T14:56:11.212Z,17.00
2022-11-16T14:58:42.351Z,16.40
2022-11-16T15:01:17.800Z,16.13
2022-11-16T15:03:56.797Z,17.07
2022-11-16T15:06:29.532Z,16.00
2022-11-16T15:09:04.580Z,17.07
2022-11-16T15:11:49.066Z,16.27
2022-11-16T15:14:22.986Z,16.53
2022-11-16T15:16:57.959Z,16.20
2022-11-16T15:19:32.084Z,17.23
2022-11-16T15:22:04.211Z,16.83
2022-11-16T15:24:36.247Z,17.27
2022-11-16T15:27:21.743Z,15.93
2022-11-16T15:29:52.496Z,17.00
2022-11-16T15:32:25.386Z,16.87
2022-11-16T15:35:02.484Z,16.03
2022-11-16T15:37:35.168Z,16.33
2022-11-16T15:40:06.128Z,16.40
2022-11-16T15:42:36.704Z,14.97
2022-11-16T15:45:15.751Z,15.13
2022-11-16T15:47:49.539Z,14.70
2022-11-16T15:50:23.203Z,15.70
2022-11-16T15:53:03.112Z,15.33
2022-11-16T15:55:37.714Z,15.63
2022-11-16T15:58:17.830Z,15.93
2022-11-16T16:00:51.119Z,16.63
2022-11-16T16:03:27.724Z,16.20
2022-11-16T16:05:58.701Z,15.47
2022-11-16T16:08:34.305Z,14.90
2022-11-16T16:11:12.790Z,15.13
2022-11-16T16:13:45.274Z,14.60
2022-11-16T16:16:32.229Z,15.03
2022-11-16T16:19:09.948Z,13.83
2022-11-16T16:21:46.484Z,13.90
2022-11-16T16:24:42.178Z,13.30
2022-11-16T16:27:18.669Z,13.90
2022-11-16T16:29:50.214Z,13.57
2022-11-16T16:32:27.025Z,16.73
2022-11-16T16:35:01.741Z,14.10
2022-11-16T16:37:35.772Z,13.77
2022-11-16T16:40:07.449Z,12.73
2022-11-16T16:42:38.141Z,12.33
2022-11-16T16:45:15.000Z,12.97
2022-11-16T16:47:45.573Z,12.70
2022-11-16T16:50:19.589Z,12.97
2022-11-16T16:52:50.241Z,13.70
2022-11-16T16:55:20.583Z,16.37
2022-11-16T16:57:51.316Z,13.53
2022-11-16T17:00:21.705Z,13.20
2022-11-16T17:02:52.028Z,12.87
2022-11-16T17:05:24.802Z,12.20
2022-11-16T17:07:57.858Z,11.90
2022-11-16T17:10:28.228Z,12.17
2022-11-16T17:12:59.118Z,11.80
2022-11-16T17:15:29.362Z,11.30
2022-11-16T17:18:01.015Z,11.17
2022-11-16T17:20:33.832Z,11.77
2022-11-16T17:23:04.494Z,11.90
2022-11-16T17:25:34.882Z,11.40
2022-11-16T17:28:05.291Z,11.70
2022-11-16T17:30:35.476Z,12.00
2022-11-16T17:33:05.825Z,11.67
2022-11-16T17:35:38.413Z,18.47
2022-11-16T17:38:09.841Z,11.77
2022-11-16T17:40:39.812Z,10.27
2022-11-16T17:43:10.086Z,10.67
2022-11-16T17:45:40.030Z,10.43
2022-11-16T17:48:10.286Z,11.27
2022-11-16T17:50:42.844Z,10.50
2022-11-16T17:53:13.124Z,11.30
2022-11-16T17:55:43.264Z,10.57
2022-11-16T17:58:13.663Z,13.47
2022-11-16T18:00:43.731Z,10.60
2022-11-16T18:03:14.087Z,10.67
2022-11-16T18:05:46.745Z,9.97
2022-11-16T18:08:17.080Z,10.13
2022-11-16T18:10:47.072Z,9.97
2022-11-16T18:13:17.387Z,9.70
2022-11-16T18:15:47.376Z,10.07
2022-11-16T18:18:19.334Z,9.57
2022-11-16T18:20:52.313Z,9.43
2022-11-16T18:23:22.536Z,9.60
2022-11-16T18:25:52.458Z,9.23
2022-11-16T18:28:22.730Z,9.60
2022-11-16T18:30:53.208Z,9.13
2022-11-16T18:33:27.808Z,9.17
2022-11-16T18:36:02.841Z,9.67
2022-11-16T18:38:33.373Z,8.50
2022-11-16T18:41:08.561Z,8.67
2022-11-16T18:43:38.862Z,11.10
2022-11-16T18:46:08.885Z,9.33
2022-11-16T18:48:40.634Z,8.70
2022-11-16T18:51:13.806Z,8.47
2022-11-16T18:53:44.230Z,8.63
2022-11-16T18:56:14.448Z,8.87
2022-11-16T18:58:53.525Z,7.97
2022-11-16T19:01:26.078Z,8.00
2022-11-16T19:03:58.471Z,8.63
2022-11-16T19:06:34.765Z,9.17
2022-11-16T19:09:09.580Z,8.57
2022-11-16T19:11:39.865Z,8.00
2022-11-16T19:14:10.638Z,8.63
2022-11-16T19:16:48.994Z,7.93
2022-11-16T19:19:22.050Z,12.63
2022-11-16T19:21:56.388Z,8.80
2022-11-16T19:24:27.032Z,8.70
2022-11-16T19:26:57.260Z,8.13
2022-11-16T19:29:28.247Z,8.30
2022-11-16T19:31:58.890Z,8.30
2022-11-16T19:34:33.312Z,8.57
2022-11-16T19:37:06.361Z,7.67
2022-11-16T19:39:36.616Z,8.20
2022-11-16T19:42:07.048Z,7.80
2022-11-16T19:44:37.398Z,7.40
2022-11-16T19:47:07.779Z,8.23
2022-11-16T19:49:38.142Z,7.73
2022-11-16T19:52:10.711Z,7.80
2022-11-16T19:54:41.035Z,8.53
2022-11-16T19:57:11.530Z,7.87
2022-11-16T19:59:41.810Z,7.83
2022-11-16T20:02:12.158Z,7.63
2022-11-16T20:04:42.477Z,7.07
2022-11-16T20:07:18.070Z,21.20
2022-11-16T20:09:53.248Z,9.30
2022-11-16T20:12:23.461Z,7.80
2022-11-16T20:14:54.016Z,7.63
2022-11-16T20:17:23.933Z,7.60
2022-11-16T20:19:54.234Z,7.40
2022-11-16T20:22:26.836Z,8.10
2022-11-16T20:24:57.413Z,7.60
2022-11-16T20:27:27.431Z,8.27
2022-11-16T20:29:57.739Z,7.37
2022-11-16T20:32:28.012Z,8.23
2022-11-16T20:34:58.350Z,7.77
2022-11-16T20:37:30.902Z,7.83
2022-11-16T20:40:01.229Z,7.63
2022-11-16T20:42:31.157Z,8.70
2022-11-16T20:45:01.479Z,7.83
2022-11-16T20:47:31.520Z,7.83
2022-11-16T20:50:03.202Z,8.50
2022-11-16T20:52:41.133Z,8.20
2022-11-16T20:55:13.106Z,7.63
2022-11-16T20:57:43.123Z,7.77
2022-11-16T21:00:15.281Z,7.90
2022-11-16T21:02:45.318Z,6.63
2022-11-16T21:05:15.615Z,5.50
2022-11-16T21:07:48.145Z,6.67
2022-11-16T21:10:22.232Z,7.37
2022-11-16T21:13:04.630Z,7.40
2022-11-16T21:15:35.022Z,6.70
2022-11-16T21:18:05.129Z,6.97
2022-11-16T21:20:35.383Z,7.90
2022-11-16T21:23:08.254Z,7.30
2022-11-16T21:25:38.564Z,7.13
2022-11-16T21:28:08.498Z,6.90
2022-11-16T21:30:38.823Z,7.03
2022-11-16T21:33:09.102Z,6.83
2022-11-16T21:35:39.785Z,6.80
2022-11-16T21:38:12.662Z,6.60
2022-11-16T21:40:43.432Z,6.93
2022-11-16T21:43:15.023Z,6.83
2022-11-16T21:45:45.735Z,5.67
2022-11-16T21:48:16.574Z,6.77
2022-11-16T21:50:47.298Z,6.47
2022-11-16T21:53:19.886Z,6.83
2022-11-16T21:55:51.589Z,6.57
2022-11-16T21:58:21.573Z,6.23
2022-11-16T22:00:51.969Z,6.27
2022-11-16T22:03:21.939Z,6.53
2022-11-16T22:06:11.620Z,6.17
2022-11-16T22:08:44.583Z,6.27
2022-11-16T22:11:15.597Z,6.90
2022-11-16T22:13:46.062Z,6.60
2022-11-16T22:16:17.783Z,6.77
2022-11-16T22:18:47.833Z,6.80
2022-11-16T22:21:18.174Z,6.93
2022-11-16T22:23:50.743Z,7.30
2022-11-16T22:26:21.265Z,6.80
2022-11-16T22:28:51.262Z,6.23
2022-11-16T22:31:21.725Z,6.77
2022-11-16T22:33:55.451Z,6.67
2022-11-16T22:36:25.754Z,7.17
2022-11-16T22:38:59.097Z,6.63
2022-11-16T22:41:29.379Z,6.27
2022-11-16T22:43:59.376Z,6.70
2022-11-16T22:46:29.726Z,6.90
2022-11-16T22:48:59.740Z,6.40
2022-11-16T22:51:31.787Z,7.03
2022-11-16T22:54:05.685Z,6.30
2022-11-16T22:56:36.875Z,6.33
2022-11-16T22:59:09.737Z,6.23
2022-11-16T23:01:40.561Z,6.03
2022-11-16T23:04:10.560Z,7.20
2022-11-16T23:06:41.205Z,6.80
2022-11-16T23:09:14.954Z,6.50
2022-11-16T23:11:57.642Z,7.27
2022-11-16T23:14:42.658Z,7.00
2022-11-16T23:17:13.057Z,6.90
2022-11-16T23:19:55.414Z,6.83
2022-11-16T23:22:38.171Z,7.40
2022-11-16T23:25:26.900Z,7.17
2022-11-16T23:28:01.179Z,7.17
2022-11-16T23:30:31.131Z,7.53
2022-11-16T23:33:01.835Z,7.40
2022-11-16T23:35:31.900Z,7.47
2022-11-16T23:38:03.784Z,7.30
2022-11-16T23:40:38.916Z,7.90
2022-11-16T23:43:24.674Z,7.87
2022-11-16T23:45:54.618Z,8.47
2022-11-16T23:48:25.229Z,8.13
2022-11-16T23:50:55.465Z,7.23
2022-11-16T23:53:26.111Z,8.10
2022-11-16T23:56:06.185Z,8.23
2022-11-16T23:58:37.033Z,7.93
